sensor_id;sensor_type;location;lat;lon;timestamp;pressure;altitude;pressure_sealevel;temperature;humidity
10606;BME280;5350;42.698;23.148;2022-12-16T00:01:03;93475.22;;;4.25;100.00
10606;BME280;5350;42.698;23.148;2022-12-16T00:03:30;93476.25;;;4.19;100.00
10606;BME280;5350;42.698;23.148;2022-12-16T00:05:57;93475.28;;;4.30;100.00
10606;BME280;5350;42.698;23.148;2022-12-16T00:08:24;93467.38;;;4.15;100.00
10606;BME280;5350;42.698;23.148;2022-12-16T00:10:56;93482.44;;;4.07;100.00
10606;BME280;5350;42.698;23.148;2022-12-16T00:13:22;93486.00;;;3.91;100.00
10606;BME280;5350;42.698;23.148;2022-12-16T00:15:51;93487.84;;;4.01;100.00
10606;BME280;5350;42.698;23.148;2022-12-16T00:18:17;93481.16;;;4.10;100.00
10606;BME280;5350;42.698;23.148;2022-12-16T00:20:45;93471.53;;;4.16;100.00
10606;BME280;5350;42.698;23.148;2022-12-16T00:23:12;93485.56;;;4.10;100.00
10606;BME280;5350;42.698;23.148;2022-12-16T00:25:40;93487.56;;;3.97;100.00
10606;BME280;5350;42.698;23.148;2022-12-16T00:28:07;93482.00;;;4.21;100.00
10606;BME280;5350;42.698;23.148;2022-12-16T00:30:34;93481.50;;;4.29;100.00
10606;BME280;5350;42.698;23.148;2022-12-16T00:33:03;93475.50;;;4.28;100.00
10606;BME280;5350;42.698;23.148;2022-12-16T00:35:30;93475.50;;;4.23;100.00
10606;BME280;5350;42.698;23.148;2022-12-16T00:37:56;93490.41;;;4.38;100.00
10606;BME280;5350;42.698;23.148;2022-12-16T00:40:23;93484.91;;;4.34;100.00
10606;BME280;5350;42.698;23.148;2022-12-16T00:42:50;93480.75;;;4.38;100.00
10606;BME280;5350;42.698;23.148;2022-12-16T00:45:17;93483.63;;;4.32;100.00
10606;BME280;5350;42.698;23.148;2022-12-16T00:47:44;93488.81;;;4.37;100.00
10606;BME280;5350;42.698;23.148;2022-12-16T00:50:12;93477.63;;;4.36;100.00
10606;BME280;5350;42.698;23.148;2022-12-16T00:52:39;93484.44;;;4.47;100.00
10606;BME280;5350;42.698;23.148;2022-12-16T00:55:06;93481.53;;;4.39;100.00
10606;BME280;5350;42.698;23.148;2022-12-16T00:57:33;93478.09;;;4.23;100.00
10606;BME280;5350;42.698;23.148;2022-12-16T00:59:59;93483.56;;;4.27;100.00
10606;BME280;5350;42.698;23.148;2022-12-16T01:02:28;93477.03;;;4.24;100.00
10606;BME280;5350;42.698;23.148;2022-12-16T01:04:55;93478.84;;;4.24;100.00
10606;BME280;5350;42.698;23.148;2022-12-16T01:07:23;93478.59;;;4.20;100.00
10606;BME280;5350;42.698;23.148;2022-12-16T01:09:52;93485.69;;;4.30;100.00
10606;BME280;5350;42.698;23.148;2022-12-16T01:12:18;93480.25;;;4.41;100.00
10606;BME280;5350;42.698;23.148;2022-12-16T01:14:45;93469.81;;;4.31;100.00
10606;BME280;5350;42.698;23.148;2022-12-16T01:17:12;93487.31;;;4.46;100.00
10606;BME280;5350;42.698;23.148;2022-12-16T01:19:38;93477.34;;;4.33;100.00
10606;BME280;5350;42.698;23.148;2022-12-16T01:22:05;93470.63;;;4.47;100.00
10606;BME280;5350;42.698;23.148;2022-12-16T01:24:33;93470.09;;;4.40;100.00
10606;BME280;5350;42.698;23.148;2022-12-16T01:27:00;93479.59;;;4.14;100.00
10606;BME280;5350;42.698;23.148;2022-12-16T01:29:27;93468.97;;;4.26;100.00
10606;BME280;5350;42.698;23.148;2022-12-16T01:31:53;93468.00;;;4.32;100.00
10606;BME280;5350;42.698;23.148;2022-12-16T01:34:20;93464.34;;;4.33;100.00
10606;BME280;5350;42.698;23.148;2022-12-16T01:36:48;93469.44;;;4.13;100.00
10606;BME280;5350;42.698;23.148;2022-12-16T01:39:16;93468.88;;;4.05;100.00
10606;BME280;5350;42.698;23.148;2022-12-16T01:41:44;93453.84;;;4.13;100.00
10606;BME280;5350;42.698;23.148;2022-12-16T01:44:12;93467.38;;;4.20;100.00
10606;BME280;5350;42.698;23.148;2022-12-16T01:46:41;93464.06;;;4.29;100.00
10606;BME280;5350;42.698;23.148;2022-12-16T01:49:12;93457.44;;;4.07;100.00
10606;BME280;5350;42.698;23.148;2022-12-16T01:51:42;93461.06;;;4.05;100.00
10606;BME280;5350;42.698;23.148;2022-12-16T01:54:11;93454.03;;;4.01;100.00
10606;BME280;5350;42.698;23.148;2022-12-16T01:56:48;93459.00;;;4.07;100.00
10606;BME280;5350;42.698;23.148;2022-12-16T01:59:17;93440.28;;;4.11;100.00
10606;BME280;5350;42.698;23.148;2022-12-16T02:01:44;93444.50;;;4.22;100.00
10606;BME280;5350;42.698;23.148;2022-12-16T02:04:11;93436.75;;;4.37;100.00
10606;BME280;5350;42.698;23.148;2022-12-16T02:06:38;93433.13;;;4.38;100.00
10606;BME280;5350;42.698;23.148;2022-12-16T02:09:07;93434.41;;;4.35;100.00
10606;BME280;5350;42.698;23.148;2022-12-16T02:11:53;93422.44;;;4.39;100.00
10606;BME280;5350;42.698;23.148;2022-12-16T02:17:20;93421.06;;;4.17;100.00
10606;BME280;5350;42.698;23.148;2022-12-16T02:20:08;93417.41;;;4.18;100.00
10606;BME280;5350;42.698;23.148;2022-12-16T02:22:51;93423.44;;;4.23;100.00
10606;BME280;5350;42.698;23.148;2022-12-16T02:25:45;93427.09;;;4.32;100.00
10606;BME280;5350;42.698;23.148;2022-12-16T02:28:32;93427.66;;;4.39;100.00
10606;BME280;5350;42.698;23.148;2022-12-16T02:31:24;93436.00;;;4.46;100.00
10606;BME280;5350;42.698;23.148;2022-12-16T02:34:01;93446.13;;;4.38;100.00
10606;BME280;5350;42.698;23.148;2022-12-16T02:36:44;93443.47;;;4.28;100.00
10606;BME280;5350;42.698;23.148;2022-12-16T02:39:19;93450.63;;;4.52;100.00
10606;BME280;5350;42.698;23.148;2022-12-16T02:41:53;93442.50;;;4.44;100.00
10606;BME280;5350;42.698;23.148;2022-12-16T02:44:30;93452.47;;;4.62;100.00
10606;BME280;5350;42.698;23.148;2022-12-16T02:47:01;93455.81;;;4.52;100.00
10606;BME280;5350;42.698;23.148;2022-12-16T02:49:49;93449.06;;;4.61;100.00
10606;BME280;5350;42.698;23.148;2022-12-16T02:52:18;93442.28;;;4.55;100.00
10606;BME280;5350;42.698;23.148;2022-12-16T02:54:48;93456.38;;;4.69;100.00
10606;BME280;5350;42.698;23.148;2022-12-16T02:57:44;93448.81;;;4.68;100.00
10606;BME280;5350;42.698;23.148;2022-12-16T03:00:14;93446.75;;;4.70;100.00
10606;BME280;5350;42.698;23.148;2022-12-16T03:02:50;93443.09;;;4.66;100.00
10606;BME280;5350;42.698;23.148;2022-12-16T03:05:22;93437.38;;;4.69;100.00
10606;BME280;5350;42.698;23.148;2022-12-16T03:07:51;93435.81;;;4.73;100.00
10606;BME280;5350;42.698;23.148;2022-12-16T03:10:24;93418.09;;;4.70;100.00
10606;BME280;5350;42.698;23.148;2022-12-16T03:12:53;93407.16;;;4.68;100.00
10606;BME280;5350;42.698;23.148;2022-12-16T03:15:24;93406.88;;;4.54;100.00
10606;BME280;5350;42.698;23.148;2022-12-16T03:17:54;93401.34;;;4.41;100.00
10606;BME280;5350;42.698;23.148;2022-12-16T03:20:26;93411.22;;;4.39;100.00
10606;BME280;5350;42.698;23.148;2022-12-16T03:22:56;93410.50;;;4.48;100.00
10606;BME280;5350;42.698;23.148;2022-12-16T03:25:25;93407.63;;;4.50;100.00
10606;BME280;5350;42.698;23.148;2022-12-16T03:27:58;93416.22;;;4.55;100.00
10606;BME280;5350;42.698;23.148;2022-12-16T03:30:32;93438.38;;;4.58;100.00
10606;BME280;5350;42.698;23.148;2022-12-16T03:33:03;93455.63;;;4.69;100.00
10606;BME280;5350;42.698;23.148;2022-12-16T03:35:35;93445.72;;;4.71;100.00
10606;BME280;5350;42.698;23.148;2022-12-16T03:38:05;93468.56;;;4.49;100.00
10606;BME280;5350;42.698;23.148;2022-12-16T03:40:35;93457.13;;;4.55;100.00
10606;BME280;5350;42.698;23.148;2022-12-16T03:43:04;93440.97;;;4.53;100.00
10606;BME280;5350;42.698;23.148;2022-12-16T03:45:35;93454.81;;;4.58;100.00
10606;BME280;5350;42.698;23.148;2022-12-16T03:48:05;93464.44;;;4.58;100.00
10606;BME280;5350;42.698;23.148;2022-12-16T03:50:35;93457.19;;;4.75;100.00
10606;BME280;5350;42.698;23.148;2022-12-16T03:53:02;93466.03;;;4.74;100.00
10606;BME280;5350;42.698;23.148;2022-12-16T03:55:29;93483.19;;;4.60;100.00
10606;BME280;5350;42.698;23.148;2022-12-16T03:57:56;93469.94;;;4.71;100.00
10606;BME280;5350;42.698;23.148;2022-12-16T04:00:23;93473.84;;;4.74;100.00
10606;BME280;5350;42.698;23.148;2022-12-16T04:02:51;93465.00;;;4.75;100.00
10606;BME280;5350;42.698;23.148;2022-12-16T04:05:21;93447.25;;;4.62;100.00
10606;BME280;5350;42.698;23.148;2022-12-16T04:07:48;93438.41;;;4.63;100.00
10606;BME280;5350;42.698;23.148;2022-12-16T04:10:14;93435.00;;;4.62;100.00
10606;BME280;5350;42.698;23.148;2022-12-16T04:12:41;93435.28;;;4.66;100.00
10606;BME280;5350;42.698;23.148;2022-12-16T04:15:26;93444.16;;;4.65;100.00
10606;BME280;5350;42.698;23.148;2022-12-16T04:18:25;93459.22;;;4.58;100.00
10606;BME280;5350;42.698;23.148;2022-12-16T04:21:10;93461.84;;;4.68;100.00
10606;BME280;5350;42.698;23.148;2022-12-16T04:24:13;93464.75;;;4.76;100.00
10606;BME280;5350;42.698;23.148;2022-12-16T04:26:44;93462.66;;;4.78;100.00
10606;BME280;5350;42.698;23.148;2022-12-16T04:29:29;93456.66;;;4.73;100.00
10606;BME280;5350;42.698;23.148;2022-12-16T04:31:56;93470.72;;;4.72;100.00
10606;BME280;5350;42.698;23.148;2022-12-16T04:34:23;93456.94;;;4.76;100.00
10606;BME280;5350;42.698;23.148;2022-12-16T04:36:56;93446.25;;;4.73;100.00
10606;BME280;5350;42.698;23.148;2022-12-16T04:39:41;93439.19;;;4.68;100.00
10606;BME280;5350;42.698;23.148;2022-12-16T04:42:25;93430.00;;;4.46;100.00
10606;BME280;5350;42.698;23.148;2022-12-16T04:45:10;93438.16;;;4.64;100.00
10606;BME280;5350;42.698;23.148;2022-12-16T04:48:05;93443.34;;;4.54;100.00
10606;BME280;5350;42.698;23.148;2022-12-16T04:50:49;93447.00;;;4.68;100.00
10606;BME280;5350;42.698;23.148;2022-12-16T04:53:35;93444.44;;;4.78;100.00
10606;BME280;5350;42.698;23.148;2022-12-16T04:56:18;93429.81;;;4.62;100.00
10606;BME280;5350;42.698;23.148;2022-12-16T04:59:03;93444.16;;;4.75;100.00
10606;BME280;5350;42.698;23.148;2022-12-16T05:01:47;93440.50;;;4.71;100.00
10606;BME280;5350;42.698;23.148;2022-12-16T05:04:31;93431.41;;;4.73;100.00
10606;BME280;5350;42.698;23.148;2022-12-16T05:07:15;93431.63;;;4.62;100.00
10606;BME280;5350;42.698;23.148;2022-12-16T05:10:00;93435.03;;;4.72;100.00
10606;BME280;5350;42.698;23.148;2022-12-16T05:12:44;93440.50;;;4.71;100.00
10606;BME280;5350;42.698;23.148;2022-12-16T05:15:28;93452.19;;;4.63;100.00
10606;BME280;5350;42.698;23.148;2022-12-16T05:18:26;93457.13;;;4.55;100.00
10606;BME280;5350;42.698;23.148;2022-12-16T05:21:11;93453.47;;;4.51;100.00
10606;BME280;5350;42.698;23.148;2022-12-16T05:23:55;93467.28;;;4.46;100.00
10606;BME280;5350;42.698;23.148;2022-12-16T05:26:40;93465.41;;;4.42;100.00
10606;BME280;5350;42.698;23.148;2022-12-16T05:29:25;93469.09;;;4.51;100.00
10606;BME280;5350;42.698;23.148;2022-12-16T05:32:09;93470.66;;;4.52;100.00
10606;BME280;5350;42.698;23.148;2022-12-16T05:34:53;93467.53;;;4.55;100.00
10606;BME280;5350;42.698;23.148;2022-12-16T05:37:37;93470.63;;;4.47;100.00
10606;BME280;5350;42.698;23.148;2022-12-16T05:40:20;93469.88;;;4.51;100.00
10606;BME280;5350;42.698;23.148;2022-12-16T05:43:06;93461.28;;;4.51;100.00
10606;BME280;5350;42.698;23.148;2022-12-16T05:45:50;93480.53;;;4.40;100.00
10606;BME280;5350;42.698;23.148;2022-12-16T05:48:34;93481.88;;;4.52;100.00
10606;BME280;5350;42.698;23.148;2022-12-16T05:51:29;93491.47;;;4.42;100.00
10606;BME280;5350;42.698;23.148;2022-12-16T05:54:14;93495.13;;;4.51;100.00
10606;BME280;5350;42.698;23.148;2022-12-16T05:56:58;93515.03;;;4.15;100.00
10606;BME280;5350;42.698;23.148;2022-12-16T05:59:52;93511.19;;;4.33;100.00
10606;BME280;5350;42.698;23.148;2022-12-16T06:02:36;93531.06;;;4.49;100.00
10606;BME280;5350;42.698;23.148;2022-12-16T06:05:20;93524.31;;;4.53;100.00
10606;BME280;5350;42.698;23.148;2022-12-16T06:08:04;93526.97;;;4.63;100.00
10606;BME280;5350;42.698;23.148;2022-12-16T06:10:48;93538.75;;;4.80;100.00
10606;BME280;5350;42.698;23.148;2022-12-16T06:13:32;93539.53;;;4.76;100.00
10606;BME280;5350;42.698;23.148;2022-12-16T06:16:17;93538.50;;;4.82;100.00
10606;BME280;5350;42.698;23.148;2022-12-16T06:19:02;93542.66;;;4.73;100.00
10606;BME280;5350;42.698;23.148;2022-12-16T06:21:46;93539.00;;;4.69;100.00
10606;BME280;5350;42.698;23.148;2022-12-16T06:24:29;93529.66;;;4.83;100.00
10606;BME280;5350;42.698;23.148;2022-12-16T06:27:13;93524.47;;;4.93;100.00
10606;BME280;5350;42.698;23.148;2022-12-16T06:29:57;93526.84;;;5.00;100.00
10606;BME280;5350;42.698;23.148;2022-12-16T06:32:42;93522.94;;;5.07;100.00
10606;BME280;5350;42.698;23.148;2022-12-16T06:35:26;93527.09;;;5.03;100.00
10606;BME280;5350;42.698;23.148;2022-12-16T06:38:10;93494.81;;;5.14;100.00
10606;BME280;5350;42.698;23.148;2022-12-16T06:40:55;93497.41;;;5.09;100.00
10606;BME280;5350;42.698;23.148;2022-12-16T06:43:39;93512.53;;;5.12;100.00
10606;BME280;5350;42.698;23.148;2022-12-16T06:46:23;93507.06;;;5.14;100.00
10606;BME280;5350;42.698;23.148;2022-12-16T06:49:08;93491.13;;;5.05;100.00
10606;BME280;5350;42.698;23.148;2022-12-16T06:51:53;93512.56;;;5.17;100.00
10606;BME280;5350;42.698;23.148;2022-12-16T06:54:37;93503.69;;;5.23;100.00
10606;BME280;5350;42.698;23.148;2022-12-16T06:57:21;93525.00;;;4.95;100.00
10606;BME280;5350;42.698;23.148;2022-12-16T07:00:06;93530.28;;;5.15;100.00
10606;BME280;5350;42.698;23.148;2022-12-16T07:02:50;93543.81;;;5.12;100.00
10606;BME280;5350;42.698;23.148;2022-12-16T07:05:36;93538.09;;;5.15;100.00
10606;BME280;5350;42.698;23.148;2022-12-16T07:08:19;93533.66;;;5.16;100.00
10606;BME280;5350;42.698;23.148;2022-12-16T07:11:04;93540.63;;;4.95;100.00
10606;BME280;5350;42.698;23.148;2022-12-16T07:13:48;93531.28;;;5.04;100.00
10606;BME280;5350;42.698;23.148;2022-12-16T07:16:32;93532.09;;;5.05;100.00
10606;BME280;5350;42.698;23.148;2022-12-16T07:19:16;93537.56;;;5.13;100.00
10606;BME280;5350;42.698;23.148;2022-12-16T07:22:01;93534.16;;;5.08;100.00
10606;BME280;5350;42.698;23.148;2022-12-16T07:24:46;93543.50;;;4.99;100.00
10606;BME280;5350;42.698;23.148;2022-12-16T07:27:30;93550.03;;;4.96;100.00
10606;BME280;5350;42.698;23.148;2022-12-16T07:30:14;93553.44;;;5.02;100.00
10606;BME280;5350;42.698;23.148;2022-12-16T07:32:58;93560.47;;;4.96;100.00
10606;BME280;5350;42.698;23.148;2022-12-16T07:35:42;93545.66;;;5.07;100.00
10606;BME280;5350;42.698;23.148;2022-12-16T07:38:28;93539.56;;;4.86;100.00
10606;BME280;5350;42.698;23.148;2022-12-16T07:41:12;93544.28;;;4.89;100.00
10606;BME280;5350;42.698;23.148;2022-12-16T07:43:53;93548.47;;;5.05;100.00
10606;BME280;5350;42.698;23.148;2022-12-16T07:46:33;93553.66;;;4.95;100.00
10606;BME280;5350;42.698;23.148;2022-12-16T07:49:18;93562.78;;;4.88;100.00
10606;BME280;5350;42.698;23.148;2022-12-16T07:52:02;93552.13;;;4.94;100.00
10606;BME280;5350;42.698;23.148;2022-12-16T07:54:47;93583.06;;;4.80;100.00
10606;BME280;5350;42.698;23.148;2022-12-16T07:57:31;93564.38;;;4.99;100.00
10606;BME280;5350;42.698;23.148;2022-12-16T08:00:24;93582.84;;;4.87;100.00
10606;BME280;5350;42.698;23.148;2022-12-16T08:03:08;93565.16;;;4.99;100.00
10606;BME280;5350;42.698;23.148;2022-12-16T08:05:52;93569.34;;;5.05;100.00
10606;BME280;5350;42.698;23.148;2022-12-16T08:08:50;93560.53;;;5.26;100.00
10606;BME280;5350;42.698;23.148;2022-12-16T08:11:36;93559.19;;;5.14;100.00
10606;BME280;5350;42.698;23.148;2022-12-16T08:14:20;93561.84;;;5.24;100.00
10606;BME280;5350;42.698;23.148;2022-12-16T08:17:05;93550.16;;;5.46;100.00
10606;BME280;5350;42.698;23.148;2022-12-16T08:19:49;93555.09;;;5.43;100.00
10606;BME280;5350;42.698;23.148;2022-12-16T08:22:33;93538.16;;;5.55;100.00
10606;BME280;5350;42.698;23.148;2022-12-16T08:25:17;93561.66;;;5.60;100.00
10606;BME280;5350;42.698;23.148;2022-12-16T08:28:03;93560.63;;;5.82;100.00
10606;BME280;5350;42.698;23.148;2022-12-16T08:30:48;93573.13;;;5.69;100.00
10606;BME280;5350;42.698;23.148;2022-12-16T08:33:33;93562.22;;;5.88;100.00
10606;BME280;5350;42.698;23.148;2022-12-16T08:36:17;93537.16;;;5.92;100.00
10606;BME280;5350;42.698;23.148;2022-12-16T08:39:01;93547.09;;;6.05;100.00
10606;BME280;5350;42.698;23.148;2022-12-16T08:41:45;93527.47;;;6.22;100.00
10606;BME280;5350;42.698;23.148;2022-12-16T08:44:31;93531.66;;;6.13;100.00
10606;BME280;5350;42.698;23.148;2022-12-16T08:47:15;93528.75;;;6.35;100.00
10606;BME280;5350;42.698;23.148;2022-12-16T08:49:59;93516.97;;;6.42;100.00
10606;BME280;5350;42.698;23.148;2022-12-16T08:52:43;93526.59;;;6.62;100.00
10606;BME280;5350;42.698;23.148;2022-12-16T08:55:27;93511.13;;;6.66;100.00
10606;BME280;5350;42.698;23.148;2022-12-16T08:58:11;93522.16;;;6.63;100.00
10606;BME280;5350;42.698;23.148;2022-12-16T09:00:56;93527.13;;;6.59;100.00
10606;BME280;5350;42.698;23.148;2022-12-16T09:03:41;93526.06;;;6.65;100.00
10606;BME280;5350;42.698;23.148;2022-12-16T09:06:25;93520.78;;;6.75;100.00
10606;BME280;5350;42.698;23.148;2022-12-16T09:09:09;93515.28;;;6.72;100.00
10606;BME280;5350;42.698;23.148;2022-12-16T09:11:53;93521.31;;;6.72;100.00
10606;BME280;5350;42.698;23.148;2022-12-16T09:14:37;93508.00;;;6.74;100.00
10606;BME280;5350;42.698;23.148;2022-12-16T09:17:23;93496.28;;;6.56;100.00
10606;BME280;5350;42.698;23.148;2022-12-16T09:20:08;93502.22;;;6.72;100.00
10606;BME280;5350;42.698;23.148;2022-12-16T09:22:52;93481.47;;;6.95;100.00
10606;BME280;5350;42.698;23.148;2022-12-16T09:25:36;93478.81;;;7.05;100.00
10606;BME280;5350;42.698;23.148;2022-12-16T09:28:20;93467.22;;;7.21;100.00
10606;BME280;5350;42.698;23.148;2022-12-16T09:31:04;93476.34;;;7.24;100.00
10606;BME280;5350;42.698;23.148;2022-12-16T09:33:50;93480.75;;;7.28;100.00
10606;BME280;5350;42.698;23.148;2022-12-16T09:36:34;93478.06;;;7.39;100.00
10606;BME280;5350;42.698;23.148;2022-12-16T09:39:18;93455.50;;;7.48;100.00
10606;BME280;5350;42.698;23.148;2022-12-16T09:42:06;93473.94;;;7.33;100.00
10606;BME280;5350;42.698;23.148;2022-12-16T09:45:00;93450.78;;;7.50;100.00
10606;BME280;5350;42.698;23.148;2022-12-16T09:47:50;93452.91;;;7.48;100.00
10606;BME280;5350;42.698;23.148;2022-12-16T09:50:41;93454.13;;;7.55;100.00
10606;BME280;5350;42.698;23.148;2022-12-16T09:53:27;93467.38;;;7.69;100.00
10606;BME280;5350;42.698;23.148;2022-12-16T09:56:16;93473.84;;;7.81;100.00
10606;BME280;5350;42.698;23.148;2022-12-16T09:59:05;93464.66;;;7.84;100.00
10606;BME280;5350;42.698;23.148;2022-12-16T10:01:50;93467.09;;;7.99;100.00
10606;BME280;5350;42.698;23.148;2022-12-16T10:04:35;93466.78;;;8.05;100.00
10606;BME280;5350;42.698;23.148;2022-12-16T10:07:21;93468.44;;;8.30;100.00
10606;BME280;5350;42.698;23.148;2022-12-16T10:10:16;93456.66;;;8.51;100.00
10606;BME280;5350;42.698;23.148;2022-12-16T10:13:08;93444.94;;;8.67;100.00
10606;BME280;5350;42.698;23.148;2022-12-16T10:16:02;93447.16;;;8.98;100.00
10606;BME280;5350;42.698;23.148;2022-12-16T10:18:54;93436.16;;;9.33;100.00
10606;BME280;5350;42.698;23.148;2022-12-16T10:21:48;93441.81;;;9.58;100.00
10606;BME280;5350;42.698;23.148;2022-12-16T10:24:46;93427.00;;;9.81;100.00
10606;BME280;5350;42.698;23.148;2022-12-16T10:27:44;93429.50;;;10.05;100.00
10606;BME280;5350;42.698;23.148;2022-12-16T10:30:29;93416.19;;;10.15;100.00
10606;BME280;5350;42.698;23.148;2022-12-16T10:33:15;93427.56;;;10.10;100.00
10606;BME280;5350;42.698;23.148;2022-12-16T10:36:00;93436.03;;;10.07;100.00
10606;BME280;5350;42.698;23.148;2022-12-16T10:38:47;93418.84;;;10.15;100.00
10606;BME280;5350;42.698;23.148;2022-12-16T10:41:36;93440.94;;;10.27;100.00
10606;BME280;5350;42.698;23.148;2022-12-16T10:44:24;93443.94;;;10.21;100.00
10606;BME280;5350;42.698;23.148;2022-12-16T10:47:09;93441.25;;;10.26;100.00
10606;BME280;5350;42.698;23.148;2022-12-16T10:49:56;93437.75;;;10.30;100.00
10606;BME280;5350;42.698;23.148;2022-12-16T10:52:50;93447.38;;;10.49;100.00
10606;BME280;5350;42.698;23.148;2022-12-16T10:55:48;93442.50;;;10.56;100.00
10606;BME280;5350;42.698;23.148;2022-12-16T10:58:43;93445.53;;;10.76;100.00
10606;BME280;5350;42.698;23.148;2022-12-16T11:17:16;93444.81;;;11.91;100.00
10606;BME280;5350;42.698;23.148;2022-12-16T11:20:16;93447.13;;;11.84;100.00
10606;BME280;5350;42.698;23.148;2022-12-16T11:23:16;93445.59;;;11.92;100.00
10606;BME280;5350;42.698;23.148;2022-12-16T11:26:05;93442.78;;;12.11;100.00
10606;BME280;5350;42.698;23.148;2022-12-16T11:29:07;93425.06;;;12.02;100.00
10606;BME280;5350;42.698;23.148;2022-12-16T11:31:57;93433.22;;;11.70;100.00
10606;BME280;5350;42.698;23.148;2022-12-16T11:34:48;93411.53;;;11.73;100.00
10606;BME280;5350;42.698;23.148;2022-12-16T11:37:33;93412.06;;;11.84;100.00
10606;BME280;5350;42.698;23.148;2022-12-16T11:40:18;93404.31;;;12.10;100.00
10606;BME280;5350;42.698;23.148;2022-12-16T11:43:04;93408.28;;;11.98;100.00
10606;BME280;5350;42.698;23.148;2022-12-16T11:45:50;93404.31;;;12.10;100.00
10606;BME280;5350;42.698;23.148;2022-12-16T12:14:29;93383.59;;;15.56;81.14
10606;BME280;5350;42.698;23.148;2022-12-16T12:17:23;93389.06;;;15.09;83.48
10606;BME280;5350;42.698;23.148;2022-12-16T12:20:31;93374.16;;;14.47;85.65
10606;BME280;5350;42.698;23.148;2022-12-16T12:23:30;93390.88;;;14.13;90.18
10606;BME280;5350;42.698;23.148;2022-12-16T12:26:35;93365.28;;;13.88;93.50
10606;BME280;5350;42.698;23.148;2022-12-16T12:29:31;93372.13;;;13.89;94.54
10606;BME280;5350;42.698;23.148;2022-12-16T12:32:22;93358.34;;;13.57;95.22
10606;BME280;5350;42.698;23.148;2022-12-16T12:35:19;93344.84;;;13.25;95.13
10606;BME280;5350;42.698;23.148;2022-12-16T12:38:11;93364.75;;;13.05;97.90
10606;BME280;5350;42.698;23.148;2022-12-16T12:41:05;93358.34;;;13.15;98.24
10606;BME280;5350;42.698;23.148;2022-12-16T12:43:58;93380.25;;;13.07;98.15
10606;BME280;5350;42.698;23.148;2022-12-16T12:46:52;93355.06;;;12.92;98.70
10606;BME280;5350;42.698;23.148;2022-12-16T12:49:43;93378.50;;;13.02;99.58
10606;BME280;5350;42.698;23.148;2022-12-16T12:52:58;93373.94;;;12.68;100.00
10606;BME280;5350;42.698;23.148;2022-12-16T12:55:53;93379.94;;;13.08;100.00
10606;BME280;5350;42.698;23.148;2022-12-16T12:58:41;93372.66;;;13.31;100.00
10606;BME280;5350;42.698;23.148;2022-12-16T13:01:29;93367.81;;;13.50;99.48
10606;BME280;5350;42.698;23.148;2022-12-16T13:04:17;93378.84;;;13.60;99.57
10606;BME280;5350;42.698;23.148;2022-12-16T13:07:03;93367.81;;;13.76;98.46
10606;BME280;5350;42.698;23.148;2022-12-16T13:10:11;93374.03;;;13.54;99.16
10606;BME280;5350;42.698;23.148;2022-12-16T13:13:20;93391.31;;;13.34;99.89
10606;BME280;5350;42.698;23.148;2022-12-16T13:16:09;93379.97;;;13.25;100.00
10606;BME280;5350;42.698;23.148;2022-12-16T13:22:27;93368.28;;;13.43;100.00
10606;BME280;5350;42.698;23.148;2022-12-16T13:25:31;93360.53;;;13.38;100.00
10606;BME280;5350;42.698;23.148;2022-12-16T13:28:24;93352.75;;;13.42;100.00
10606;BME280;5350;42.698;23.148;2022-12-16T13:31:09;93365.22;;;13.07;100.00
10606;BME280;5350;42.698;23.148;2022-12-16T13:33:59;93369.34;;;13.00;100.00
10606;BME280;5350;42.698;23.148;2022-12-16T13:36:52;93363.88;;;12.79;100.00
10606;BME280;5350;42.698;23.148;2022-12-16T13:39:40;93375.97;;;12.63;100.00
10606;BME280;5350;42.698;23.148;2022-12-16T13:42:48;93371.84;;;12.40;100.00
10606;BME280;5350;42.698;23.148;2022-12-16T13:45:36;93380.88;;;12.39;100.00
10606;BME280;5350;42.698;23.148;2022-12-16T13:48:38;93354.16;;;12.32;100.00
10606;BME280;5350;42.698;23.148;2022-12-16T14:06:23;93396.94;;;14.30;100.00
10606;BME280;5350;42.698;23.148;2022-12-16T14:09:22;93386.34;;;14.30;99.80
10606;BME280;5350;42.698;23.148;2022-12-16T14:12:13;93395.13;;;14.60;99.92
10606;BME280;5350;42.698;23.148;2022-12-16T14:15:04;93412.31;;;14.46;97.71
10606;BME280;5350;42.698;23.148;2022-12-16T14:17:54;93408.63;;;14.12;100.00
10606;BME280;5350;42.698;23.148;2022-12-16T14:20:47;93409.31;;;13.84;100.00
10606;BME280;5350;42.698;23.148;2022-12-16T14:23:37;93413.69;;;13.45;100.00
10606;BME280;5350;42.698;23.148;2022-12-16T14:26:25;93413.00;;;12.97;100.00
10606;BME280;5350;42.698;23.148;2022-12-16T14:29:18;93400.03;;;12.61;100.00
10606;BME280;5350;42.698;23.148;2022-12-16T14:32:18;93408.22;;;12.51;100.00
10606;BME280;5350;42.698;23.148;2022-12-16T14:35:02;93416.06;;;12.34;100.00
10606;BME280;5350;42.698;23.148;2022-12-16T14:37:46;93406.66;;;12.11;100.00
10606;BME280;5350;42.698;23.148;2022-12-16T14:40:32;93392.72;;;12.19;100.00
10606;BME280;5350;42.698;23.148;2022-12-16T14:43:18;93393.84;;;12.27;100.00
10606;BME280;5350;42.698;23.148;2022-12-16T14:46:03;93386.81;;;13.18;100.00
10606;BME280;5350;42.698;23.148;2022-12-16T14:48:50;93407.13;;;13.86;100.00
10606;BME280;5350;42.698;23.148;2022-12-16T14:51:35;93412.84;;;14.05;100.00
10606;BME280;5350;42.698;23.148;2022-12-16T14:54:23;93411.94;;;13.75;100.00
10606;BME280;5350;42.698;23.148;2022-12-16T14:57:14;93404.97;;;13.19;100.00
10606;BME280;5350;42.698;23.148;2022-12-16T15:00:10;93403.03;;;12.94;100.00
10606;BME280;5350;42.698;23.148;2022-12-16T15:02:57;93418.19;;;12.63;100.00
10606;BME280;5350;42.698;23.148;2022-12-16T15:05:43;93417.78;;;12.39;100.00
10606;BME280;5350;42.698;23.148;2022-12-16T15:08:30;93401.56;;;12.23;100.00
10606;BME280;5350;42.698;23.148;2022-12-16T15:11:18;93406.72;;;11.97;100.00
10606;BME280;5350;42.698;23.148;2022-12-16T15:14:05;93402.13;;;12.42;100.00
10606;BME280;5350;42.698;23.148;2022-12-16T15:16:53;93401.25;;;13.12;100.00
10606;BME280;5350;42.698;23.148;2022-12-16T15:19:42;93415.44;;;14.39;100.00